sensor_id;sensor_type;location;lat;lon;timestamp;P1;durP1;ratioP1;P2;durP2;ratioP2
63008;SDS011;49099;28.428;-16.488;2023-04-24T00:01:26;7.30;;;1.70;;
63008;SDS011;49099;28.428;-16.488;2023-04-24T00:03:53;4.88;;;1.20;;
63008;SDS011;49099;28.428;-16.488;2023-04-24T00:06:21;7.93;;;1.45;;
63008;SDS011;49099;28.428;-16.488;2023-04-24T00:08:50;8.35;;;1.20;;
63008;SDS011;49099;28.428;-16.488;2023-04-24T00:11:17;5.82;;;1.30;;
63008;SDS011;49099;28.428;-16.488;2023-04-24T00:13:44;9.93;;;1.50;;
63008;SDS011;49099;28.428;-16.488;2023-04-24T00:16:11;4.85;;;1.10;;
63008;SDS011;49099;28.428;-16.488;2023-04-24T00:18:38;6.30;;;1.30;;
63008;SDS011;49099;28.428;-16.488;2023-04-24T00:21:06;6.25;;;1.17;;
63008;SDS011;49099;28.428;-16.488;2023-04-24T00:23:33;6.28;;;1.50;;
63008;SDS011;49099;28.428;-16.488;2023-04-24T00:26:01;5.57;;;1.00;;
63008;SDS011;49099;28.428;-16.488;2023-04-24T00:28:28;6.28;;;1.25;;
63008;SDS011;49099;28.428;-16.488;2023-04-24T00:30:55;10.55;;;1.50;;
63008;SDS011;49099;28.428;-16.488;2023-04-24T00:33:23;5.90;;;1.30;;
63008;SDS011;49099;28.428;-16.488;2023-04-24T00:35:50;5.32;;;1.30;;
63008;SDS011;49099;28.428;-16.488;2023-04-24T00:38:17;7.10;;;1.30;;
63008;SDS011;49099;28.428;-16.488;2023-04-24T00:40:45;8.65;;;1.33;;
63008;SDS011;49099;28.428;-16.488;2023-04-24T00:43:14;5.18;;;1.30;;
63008;SDS011;49099;28.428;-16.488;2023-04-24T00:45:41;6.05;;;1.40;;
63008;SDS011;49099;28.428;-16.488;2023-04-24T00:48:08;10.35;;;1.50;;
63008;SDS011;49099;28.428;-16.488;2023-04-24T00:50:36;5.53;;;1.30;;
63008;SDS011;49099;28.428;-16.488;2023-04-24T00:53:03;4.15;;;1.20;;
63008;SDS011;49099;28.428;-16.488;2023-04-24T00:55:30;7.65;;;1.30;;
63008;SDS011;49099;28.428;-16.488;2023-04-24T00:57:58;6.55;;;1.30;;
63008;SDS011;49099;28.428;-16.488;2023-04-24T01:00:26;7.85;;;1.63;;
63008;SDS011;49099;28.428;-16.488;2023-04-24T01:02:53;5.55;;;1.00;;
63008;SDS011;49099;28.428;-16.488;2023-04-24T01:05:22;6.13;;;1.35;;
63008;SDS011;49099;28.428;-16.488;2023-04-24T01:07:49;7.78;;;1.55;;
63008;SDS011;49099;28.428;-16.488;2023-04-24T01:10:16;5.43;;;1.33;;
63008;SDS011;49099;28.428;-16.488;2023-04-24T01:12:44;5.68;;;1.30;;
63008;SDS011;49099;28.428;-16.488;2023-04-24T01:15:12;5.15;;;1.23;;
63008;SDS011;49099;28.428;-16.488;2023-04-24T01:17:39;6.32;;;1.30;;
63008;SDS011;49099;28.428;-16.488;2023-04-24T01:20:06;4.93;;;1.33;;
63008;SDS011;49099;28.428;-16.488;2023-04-24T01:22:34;6.82;;;1.10;;
63008;SDS011;49099;28.428;-16.488;2023-04-24T01:25:03;6.00;;;1.30;;
63008;SDS011;49099;28.428;-16.488;2023-04-24T01:27:31;7.03;;;1.75;;
63008;SDS011;49099;28.428;-16.488;2023-04-24T01:29:59;5.07;;;1.20;;
63008;SDS011;49099;28.428;-16.488;2023-04-24T01:32:26;9.63;;;1.60;;
63008;SDS011;49099;28.428;-16.488;2023-04-24T01:34:54;5.88;;;1.10;;
63008;SDS011;49099;28.428;-16.488;2023-04-24T01:37:22;4.28;;;1.05;;
63008;SDS011;49099;28.428;-16.488;2023-04-24T01:39:49;5.70;;;1.15;;
63008;SDS011;49099;28.428;-16.488;2023-04-24T01:42:16;8.50;;;1.38;;
63008;SDS011;49099;28.428;-16.488;2023-04-24T01:44:44;10.20;;;1.20;;
63008;SDS011;49099;28.428;-16.488;2023-04-24T01:47:12;4.00;;;1.20;;
63008;SDS011;49099;28.428;-16.488;2023-04-24T01:49:40;8.73;;;1.67;;
63008;SDS011;49099;28.428;-16.488;2023-04-24T01:52:07;6.70;;;1.20;;
63008;SDS011;49099;28.428;-16.488;2023-04-24T01:54:35;10.80;;;1.67;;
63008;SDS011;49099;28.428;-16.488;2023-04-24T01:57:02;6.05;;;1.30;;
63008;SDS011;49099;28.428;-16.488;2023-04-24T01:59:29;7.13;;;1.20;;
63008;SDS011;49099;28.428;-16.488;2023-04-24T02:01:59;6.47;;;1.40;;
63008;SDS011;49099;28.428;-16.488;2023-04-24T02:04:26;6.60;;;1.45;;
63008;SDS011;49099;28.428;-16.488;2023-04-24T02:06:53;7.55;;;1.38;;
63008;SDS011;49099;28.428;-16.488;2023-04-24T02:09:22;8.60;;;1.33;;
63008;SDS011;49099;28.428;-16.488;2023-04-24T02:11:49;9.07;;;1.30;;
63008;SDS011;49099;28.428;-16.488;2023-04-24T02:14:16;10.68;;;2.03;;
63008;SDS011;49099;28.428;-16.488;2023-04-24T02:16:43;9.60;;;1.50;;
63008;SDS011;49099;28.428;-16.488;2023-04-24T02:19:11;6.78;;;1.10;;
63008;SDS011;49099;28.428;-16.488;2023-04-24T02:21:38;7.93;;;1.30;;
63008;SDS011;49099;28.428;-16.488;2023-04-24T02:24:05;8.38;;;1.45;;
63008;SDS011;49099;28.428;-16.488;2023-04-24T02:26:32;6.50;;;1.30;;
63008;SDS011;49099;28.428;-16.488;2023-04-24T02:28:59;5.38;;;1.27;;
63008;SDS011;49099;28.428;-16.488;2023-04-24T02:31:26;6.93;;;1.40;;
63008;SDS011;49099;28.428;-16.488;2023-04-24T02:33:54;5.45;;;1.20;;
63008;SDS011;49099;28.428;-16.488;2023-04-24T02:36:21;10.43;;;1.60;;
63008;SDS011;49099;28.428;-16.488;2023-04-24T02:38:48;6.82;;;1.50;;
63008;SDS011;49099;28.428;-16.488;2023-04-24T02:41:16;9.32;;;1.30;;
63008;SDS011;49099;28.428;-16.488;2023-04-24T02:43:43;6.13;;;1.40;;
63008;SDS011;49099;28.428;-16.488;2023-04-24T02:46:10;8.50;;;1.77;;
63008;SDS011;49099;28.428;-16.488;2023-04-24T02:48:37;8.75;;;1.45;;
63008;SDS011;49099;28.428;-16.488;2023-04-24T02:51:04;8.40;;;1.45;;
63008;SDS011;49099;28.428;-16.488;2023-04-24T02:53:33;5.93;;;1.15;;
63008;SDS011;49099;28.428;-16.488;2023-04-24T02:56:00;11.18;;;1.38;;
63008;SDS011;49099;28.428;-16.488;2023-04-24T02:58:27;7.80;;;1.38;;
63008;SDS011;49099;28.428;-16.488;2023-04-24T03:00:54;9.77;;;1.50;;
63008;SDS011;49099;28.428;-16.488;2023-04-24T03:03:22;8.63;;;1.30;;
63008;SDS011;49099;28.428;-16.488;2023-04-24T03:05:50;7.57;;;1.30;;
63008;SDS011;49099;28.428;-16.488;2023-04-24T03:08:17;6.47;;;1.40;;
63008;SDS011;49099;28.428;-16.488;2023-04-24T03:10:45;7.53;;;1.35;;
63008;SDS011;49099;28.428;-16.488;2023-04-24T03:13:13;9.20;;;1.40;;
63008;SDS011;49099;28.428;-16.488;2023-04-24T03:15:41;8.88;;;1.73;;
63008;SDS011;49099;28.428;-16.488;2023-04-24T03:18:09;9.18;;;1.20;;
63008;SDS011;49099;28.428;-16.488;2023-04-24T03:20:36;9.35;;;1.63;;
63008;SDS011;49099;28.428;-16.488;2023-04-24T03:23:04;8.95;;;1.30;;
63008;SDS011;49099;28.428;-16.488;2023-04-24T03:25:31;6.53;;;1.23;;
63008;SDS011;49099;28.428;-16.488;2023-04-24T03:27:58;8.40;;;1.40;;
63008;SDS011;49099;28.428;-16.488;2023-04-24T03:30:26;6.85;;;1.20;;
63008;SDS011;49099;28.428;-16.488;2023-04-24T03:32:53;7.95;;;1.30;;
63008;SDS011;49099;28.428;-16.488;2023-04-24T03:35:20;6.93;;;1.40;;
63008;SDS011;49099;28.428;-16.488;2023-04-24T03:37:52;7.55;;;1.40;;
63008;SDS011;49099;28.428;-16.488;2023-04-24T03:40:19;7.90;;;1.38;;
63008;SDS011;49099;28.428;-16.488;2023-04-24T03:42:47;8.20;;;1.20;;
63008;SDS011;49099;28.428;-16.488;2023-04-24T03:45:14;5.88;;;1.40;;
63008;SDS011;49099;28.428;-16.488;2023-04-24T03:47:41;8.02;;;1.10;;
63008;SDS011;49099;28.428;-16.488;2023-04-24T03:50:08;8.77;;;1.70;;
63008;SDS011;49099;28.428;-16.488;2023-04-24T03:52:38;6.93;;;1.30;;
63008;SDS011;49099;28.428;-16.488;2023-04-24T03:55:05;8.82;;;1.40;;
63008;SDS011;49099;28.428;-16.488;2023-04-24T03:57:33;10.57;;;1.75;;
63008;SDS011;49099;28.428;-16.488;2023-04-24T04:00:00;8.65;;;1.42;;
63008;SDS011;49099;28.428;-16.488;2023-04-24T04:02:32;5.72;;;1.20;;
63008;SDS011;49099;28.428;-16.488;2023-04-24T04:05:00;6.70;;;1.30;;
63008;SDS011;49099;28.428;-16.488;2023-04-24T04:07:27;12.25;;;1.50;;
63008;SDS011;49099;28.428;-16.488;2023-04-24T04:09:56;4.53;;;1.23;;
63008;SDS011;49099;28.428;-16.488;2023-04-24T04:12:23;8.93;;;1.40;;
63008;SDS011;49099;28.428;-16.488;2023-04-24T04:14:50;8.63;;;1.50;;
63008;SDS011;49099;28.428;-16.488;2023-04-24T04:17:18;9.15;;;1.60;;
63008;SDS011;49099;28.428;-16.488;2023-04-24T04:19:45;7.05;;;1.30;;
63008;SDS011;49099;28.428;-16.488;2023-04-24T04:22:12;6.90;;;1.17;;
63008;SDS011;49099;28.428;-16.488;2023-04-24T04:24:39;8.38;;;1.13;;
63008;SDS011;49099;28.428;-16.488;2023-04-24T04:27:07;7.53;;;1.45;;
63008;SDS011;49099;28.428;-16.488;2023-04-24T04:29:35;7.97;;;1.23;;
63008;SDS011;49099;28.428;-16.488;2023-04-24T04:32:02;8.80;;;1.42;;
63008;SDS011;49099;28.428;-16.488;2023-04-24T04:34:30;9.35;;;1.70;;
63008;SDS011;49099;28.428;-16.488;2023-04-24T04:36:57;7.45;;;1.55;;
63008;SDS011;49099;28.428;-16.488;2023-04-24T04:39:28;7.35;;;1.20;;
63008;SDS011;49099;28.428;-16.488;2023-04-24T04:41:56;9.43;;;1.50;;
63008;SDS011;49099;28.428;-16.488;2023-04-24T04:44:25;7.55;;;1.38;;
63008;SDS011;49099;28.428;-16.488;2023-04-24T04:46:56;6.22;;;1.13;;
63008;SDS011;49099;28.428;-16.488;2023-04-24T04:49:24;7.90;;;1.45;;
63008;SDS011;49099;28.428;-16.488;2023-04-24T04:51:51;6.97;;;1.23;;
63008;SDS011;49099;28.428;-16.488;2023-04-24T04:54:18;6.50;;;1.38;;
63008;SDS011;49099;28.428;-16.488;2023-04-24T04:56:45;6.30;;;1.10;;
63008;SDS011;49099;28.428;-16.488;2023-04-24T04:59:13;7.57;;;1.30;;
63008;SDS011;49099;28.428;-16.488;2023-04-24T05:01:40;6.68;;;1.45;;
63008;SDS011;49099;28.428;-16.488;2023-04-24T05:04:07;9.45;;;1.48;;
63008;SDS011;49099;28.428;-16.488;2023-04-24T05:06:34;7.38;;;1.30;;
63008;SDS011;49099;28.428;-16.488;2023-04-24T05:09:02;6.22;;;1.17;;
63008;SDS011;49099;28.428;-16.488;2023-04-24T05:11:30;5.65;;;1.30;;
63008;SDS011;49099;28.428;-16.488;2023-04-24T05:13:57;8.43;;;1.45;;
63008;SDS011;49099;28.428;-16.488;2023-04-24T05:16:24;7.97;;;1.40;;
63008;SDS011;49099;28.428;-16.488;2023-04-24T05:18:52;9.48;;;1.38;;
63008;SDS011;49099;28.428;-16.488;2023-04-24T05:21:19;5.18;;;1.10;;
63008;SDS011;49099;28.428;-16.488;2023-04-24T05:23:46;7.15;;;1.60;;
63008;SDS011;49099;28.428;-16.488;2023-04-24T05:26:13;8.57;;;1.50;;
63008;SDS011;49099;28.428;-16.488;2023-04-24T05:28:42;6.93;;;1.17;;
63008;SDS011;49099;28.428;-16.488;2023-04-24T05:31:09;8.52;;;1.27;;
63008;SDS011;49099;28.428;-16.488;2023-04-24T05:33:36;9.48;;;1.50;;
63008;SDS011;49099;28.428;-16.488;2023-04-24T05:36:04;8.25;;;1.45;;
63008;SDS011;49099;28.428;-16.488;2023-04-24T05:38:33;8.73;;;1.50;;
63008;SDS011;49099;28.428;-16.488;2023-04-24T05:41:00;6.95;;;1.77;;
63008;SDS011;49099;28.428;-16.488;2023-04-24T05:43:27;7.65;;;1.15;;
63008;SDS011;49099;28.428;-16.488;2023-04-24T05:45:54;13.95;;;1.63;;
63008;SDS011;49099;28.428;-16.488;2023-04-24T05:48:22;9.32;;;1.50;;
63008;SDS011;49099;28.428;-16.488;2023-04-24T05:51:11;8.82;;;1.20;;
63008;SDS011;49099;28.428;-16.488;2023-04-24T05:53:38;6.03;;;1.30;;
63008;SDS011;49099;28.428;-16.488;2023-04-24T05:56:06;7.40;;;1.50;;
63008;SDS011;49099;28.428;-16.488;2023-04-24T05:58:33;8.93;;;1.45;;
63008;SDS011;49099;28.428;-16.488;2023-04-24T06:01:01;7.57;;;1.80;;
63008;SDS011;49099;28.428;-16.488;2023-04-24T06:03:29;10.43;;;1.60;;
63008;SDS011;49099;28.428;-16.488;2023-04-24T06:05:56;6.45;;;1.33;;
63008;SDS011;49099;28.428;-16.488;2023-04-24T06:08:23;8.68;;;1.63;;
63008;SDS011;49099;28.428;-16.488;2023-04-24T06:10:50;7.60;;;1.38;;
63008;SDS011;49099;28.428;-16.488;2023-04-24T06:13:18;9.50;;;1.73;;
63008;SDS011;49099;28.428;-16.488;2023-04-24T06:15:45;11.35;;;1.50;;
63008;SDS011;49099;28.428;-16.488;2023-04-24T06:18:12;13.40;;;1.70;;
63008;SDS011;49099;28.428;-16.488;2023-04-24T06:20:40;12.23;;;1.75;;
63008;SDS011;49099;28.428;-16.488;2023-04-24T06:23:07;9.75;;;1.80;;
63008;SDS011;49099;28.428;-16.488;2023-04-24T06:25:34;8.63;;;1.58;;
63008;SDS011;49099;28.428;-16.488;2023-04-24T06:28:01;8.50;;;1.60;;
63008;SDS011;49099;28.428;-16.488;2023-04-24T06:30:29;12.10;;;1.60;;
63008;SDS011;49099;28.428;-16.488;2023-04-24T06:32:56;12.38;;;1.40;;
63008;SDS011;49099;28.428;-16.488;2023-04-24T06:35:35;8.52;;;1.50;;
63008;SDS011;49099;28.428;-16.488;2023-04-24T06:38:04;11.70;;;1.67;;
63008;SDS011;49099;28.428;-16.488;2023-04-24T06:40:31;11.52;;;1.65;;
63008;SDS011;49099;28.428;-16.488;2023-04-24T06:43:00;14.20;;;1.52;;
63008;SDS011;49099;28.428;-16.488;2023-04-24T06:45:29;9.63;;;1.63;;
63008;SDS011;49099;28.428;-16.488;2023-04-24T06:47:57;8.20;;;1.25;;
63008;SDS011;49099;28.428;-16.488;2023-04-24T06:50:24;10.00;;;1.52;;
63008;SDS011;49099;28.428;-16.488;2023-04-24T06:55:48;10.57;;;1.65;;
63008;SDS011;49099;28.428;-16.488;2023-04-24T06:58:16;8.95;;;1.50;;
63008;SDS011;49099;28.428;-16.488;2023-04-24T07:00:43;12.85;;;1.90;;
63008;SDS011;49099;28.428;-16.488;2023-04-24T07:03:10;6.75;;;1.50;;
63008;SDS011;49099;28.428;-16.488;2023-04-24T07:05:37;9.73;;;1.48;;
63008;SDS011;49099;28.428;-16.488;2023-04-24T07:08:04;8.30;;;1.83;;
63008;SDS011;49099;28.428;-16.488;2023-04-24T07:10:33;9.48;;;1.63;;
63008;SDS011;49099;28.428;-16.488;2023-04-24T07:13:02;8.90;;;1.80;;
63008;SDS011;49099;28.428;-16.488;2023-04-24T07:15:29;9.57;;;1.77;;
63008;SDS011;49099;28.428;-16.488;2023-04-24T07:17:56;7.68;;;1.30;;
63008;SDS011;49099;28.428;-16.488;2023-04-24T07:20:24;8.45;;;1.70;;
63008;SDS011;49099;28.428;-16.488;2023-04-24T07:22:51;12.73;;;1.75;;
63008;SDS011;49099;28.428;-16.488;2023-04-24T07:25:20;8.57;;;1.60;;
63008;SDS011;49099;28.428;-16.488;2023-04-24T07:27:47;8.30;;;1.55;;
63008;SDS011;49099;28.428;-16.488;2023-04-24T07:30:15;19.20;;;1.88;;
63008;SDS011;49099;28.428;-16.488;2023-04-24T07:32:42;12.77;;;1.60;;
63008;SDS011;49099;28.428;-16.488;2023-04-24T07:35:10;7.38;;;1.30;;
63008;SDS011;49099;28.428;-16.488;2023-04-24T07:37:37;10.48;;;1.90;;
63008;SDS011;49099;28.428;-16.488;2023-04-24T07:40:04;8.70;;;1.33;;
63008;SDS011;49099;28.428;-16.488;2023-04-24T07:42:32;13.75;;;1.75;;
63008;SDS011;49099;28.428;-16.488;2023-04-24T07:45:01;6.93;;;1.80;;
63008;SDS011;49099;28.428;-16.488;2023-04-24T07:47:28;12.02;;;1.75;;
63008;SDS011;49099;28.428;-16.488;2023-04-24T07:49:56;8.38;;;1.65;;
63008;SDS011;49099;28.428;-16.488;2023-04-24T07:52:23;11.32;;;2.08;;
63008;SDS011;49099;28.428;-16.488;2023-04-24T07:54:51;8.90;;;1.70;;
63008;SDS011;49099;28.428;-16.488;2023-04-24T07:57:25;11.68;;;1.52;;
63008;SDS011;49099;28.428;-16.488;2023-04-24T07:59:52;9.25;;;1.92;;
63008;SDS011;49099;28.428;-16.488;2023-04-24T08:02:19;8.30;;;1.67;;
63008;SDS011;49099;28.428;-16.488;2023-04-24T08:04:48;10.07;;;1.60;;
63008;SDS011;49099;28.428;-16.488;2023-04-24T08:07:15;11.43;;;1.70;;
63008;SDS011;49099;28.428;-16.488;2023-04-24T08:09:43;8.65;;;1.45;;
63008;SDS011;49099;28.428;-16.488;2023-04-24T08:12:10;7.03;;;1.52;;
63008;SDS011;49099;28.428;-16.488;2023-04-24T08:14:38;9.05;;;1.50;;
63008;SDS011;49099;28.428;-16.488;2023-04-24T08:17:05;11.40;;;1.50;;
63008;SDS011;49099;28.428;-16.488;2023-04-24T08:19:32;11.15;;;1.73;;
63008;SDS011;49099;28.428;-16.488;2023-04-24T08:22:00;14.30;;;1.85;;
63008;SDS011;49099;28.428;-16.488;2023-04-24T08:24:27;8.68;;;1.58;;
63008;SDS011;49099;28.428;-16.488;2023-04-24T08:26:54;8.43;;;1.70;;
63008;SDS011;49099;28.428;-16.488;2023-04-24T08:29:23;11.18;;;1.48;;
63008;SDS011;49099;28.428;-16.488;2023-04-24T08:31:51;11.90;;;2.92;;
63008;SDS011;49099;28.428;-16.488;2023-04-24T08:34:18;11.82;;;2.28;;
63008;SDS011;49099;28.428;-16.488;2023-04-24T08:36:45;19.02;;;2.53;;
63008;SDS011;49099;28.428;-16.488;2023-04-24T08:39:13;25.50;;;3.10;;
63008;SDS011;49099;28.428;-16.488;2023-04-24T08:41:41;17.45;;;3.13;;
63008;SDS011;49099;28.428;-16.488;2023-04-24T08:44:12;10.73;;;1.90;;
63008;SDS011;49099;28.428;-16.488;2023-04-24T08:46:43;13.10;;;2.00;;
63008;SDS011;49099;28.428;-16.488;2023-04-24T08:49:12;18.23;;;2.50;;
63008;SDS011;49099;28.428;-16.488;2023-04-24T08:51:43;10.40;;;2.17;;
63008;SDS011;49099;28.428;-16.488;2023-04-24T08:54:14;10.32;;;1.83;;
63008;SDS011;49099;28.428;-16.488;2023-04-24T08:56:42;14.07;;;2.58;;
63008;SDS011;49099;28.428;-16.488;2023-04-24T08:59:11;12.45;;;2.15;;
63008;SDS011;49099;28.428;-16.488;2023-04-24T09:01:39;15.27;;;2.40;;
63008;SDS011;49099;28.428;-16.488;2023-04-24T09:04:08;13.00;;;1.83;;
63008;SDS011;49099;28.428;-16.488;2023-04-24T09:06:41;12.80;;;2.20;;
63008;SDS011;49099;28.428;-16.488;2023-04-24T09:09:09;15.68;;;2.50;;
63008;SDS011;49099;28.428;-16.488;2023-04-24T09:11:38;15.18;;;2.03;;
63008;SDS011;49099;28.428;-16.488;2023-04-24T09:14:05;12.13;;;1.80;;
63008;SDS011;49099;28.428;-16.488;2023-04-24T09:16:34;12.85;;;1.92;;
63008;SDS011;49099;28.428;-16.488;2023-04-24T09:19:02;13.18;;;1.95;;
63008;SDS011;49099;28.428;-16.488;2023-04-24T09:21:33;13.18;;;1.90;;
63008;SDS011;49099;28.428;-16.488;2023-04-24T09:24:03;16.02;;;1.80;;
63008;SDS011;49099;28.428;-16.488;2023-04-24T09:26:36;8.23;;;1.70;;
63008;SDS011;49099;28.428;-16.488;2023-04-24T09:29:03;8.95;;;1.60;;
63008;SDS011;49099;28.428;-16.488;2023-04-24T09:31:31;13.40;;;1.95;;
63008;SDS011;49099;28.428;-16.488;2023-04-24T09:34:04;8.88;;;1.90;;
63008;SDS011;49099;28.428;-16.488;2023-04-24T09:39:06;9.20;;;1.50;;
63008;SDS011;49099;28.428;-16.488;2023-04-24T09:41:51;12.40;;;1.95;;
63008;SDS011;49099;28.428;-16.488;2023-04-24T09:44:24;9.43;;;1.70;;
63008;SDS011;49099;28.428;-16.488;2023-04-24T09:46:56;8.85;;;1.60;;
63008;SDS011;49099;28.428;-16.488;2023-04-24T09:49:25;10.35;;;1.80;;
63008;SDS011;49099;28.428;-16.488;2023-04-24T09:52:04;13.05;;;1.95;;
63008;SDS011;49099;28.428;-16.488;2023-04-24T09:54:33;13.63;;;1.85;;
63008;SDS011;49099;28.428;-16.488;2023-04-24T09:57:00;12.02;;;2.13;;
63008;SDS011;49099;28.428;-16.488;2023-04-24T09:59:28;11.13;;;1.73;;
63008;SDS011;49099;28.428;-16.488;2023-04-24T10:02:00;8.52;;;2.03;;
63008;SDS011;49099;28.428;-16.488;2023-04-24T10:04:28;13.10;;;1.75;;
63008;SDS011;49099;28.428;-16.488;2023-04-24T10:06:56;12.25;;;1.83;;
63008;SDS011;49099;28.428;-16.488;2023-04-24T10:09:24;13.38;;;1.73;;
63008;SDS011;49099;28.428;-16.488;2023-04-24T10:11:57;8.98;;;1.73;;
63008;SDS011;49099;28.428;-16.488;2023-04-24T10:14:27;13.88;;;1.77;;
63008;SDS011;49099;28.428;-16.488;2023-04-24T10:17:02;15.52;;;1.90;;
63008;SDS011;49099;28.428;-16.488;2023-04-24T10:19:45;8.95;;;1.65;;
63008;SDS011;49099;28.428;-16.488;2023-04-24T10:22:14;13.07;;;2.03;;
63008;SDS011;49099;28.428;-16.488;2023-04-24T10:24:45;10.98;;;1.92;;
63008;SDS011;49099;28.428;-16.488;2023-04-24T10:27:17;15.70;;;2.20;;
63008;SDS011;49099;28.428;-16.488;2023-04-24T10:29:47;10.02;;;1.65;;
63008;SDS011;49099;28.428;-16.488;2023-04-24T10:32:17;11.63;;;2.13;;
63008;SDS011;49099;28.428;-16.488;2023-04-24T10:34:44;10.77;;;2.03;;
63008;SDS011;49099;28.428;-16.488;2023-04-24T10:37:11;12.55;;;1.95;;
63008;SDS011;49099;28.428;-16.488;2023-04-24T10:39:41;12.85;;;2.10;;
63008;SDS011;49099;28.428;-16.488;2023-04-24T10:42:15;11.70;;;1.95;;
63008;SDS011;49099;28.428;-16.488;2023-04-24T10:44:43;11.93;;;2.00;;
63008;SDS011;49099;28.428;-16.488;2023-04-24T10:47:13;9.85;;;1.92;;
63008;SDS011;49099;28.428;-16.488;2023-04-24T10:49:44;13.75;;;2.22;;
63008;SDS011;49099;28.428;-16.488;2023-04-24T10:52:12;13.55;;;2.00;;
63008;SDS011;49099;28.428;-16.488;2023-04-24T10:54:42;13.55;;;2.10;;
63008;SDS011;49099;28.428;-16.488;2023-04-24T11:00:15;10.98;;;2.00;;
63008;SDS011;49099;28.428;-16.488;2023-04-24T11:02:47;9.82;;;1.88;;
63008;SDS011;49099;28.428;-16.488;2023-04-24T11:05:17;11.32;;;2.10;;
63008;SDS011;49099;28.428;-16.488;2023-04-24T11:10:47;8.57;;;1.60;;
63008;SDS011;49099;28.428;-16.488;2023-04-24T11:13:27;10.20;;;1.85;;
63008;SDS011;49099;28.428;-16.488;2023-04-24T11:16:19;8.88;;;1.90;;
63008;SDS011;49099;28.428;-16.488;2023-04-24T11:19:09;10.77;;;1.77;;
63008;SDS011;49099;28.428;-16.488;2023-04-24T11:21:46;12.63;;;1.80;;
63008;SDS011;49099;28.428;-16.488;2023-04-24T11:24:26;10.60;;;1.75;;
63008;SDS011;49099;28.428;-16.488;2023-04-24T11:27:11;12.02;;;1.95;;
63008;SDS011;49099;28.428;-16.488;2023-04-24T11:29:59;15.73;;;2.05;;
63008;SDS011;49099;28.428;-16.488;2023-04-24T11:32:29;12.18;;;1.73;;
63008;SDS011;49099;28.428;-16.488;2023-04-24T11:35:03;9.77;;;1.67;;
63008;SDS011;49099;28.428;-16.488;2023-04-24T11:37:35;10.93;;;1.90;;
63008;SDS011;49099;28.428;-16.488;2023-04-24T11:40:10;7.57;;;1.55;;
63008;SDS011;49099;28.428;-16.488;2023-04-24T11:42:45;12.65;;;2.20;;
63008;SDS011;49099;28.428;-16.488;2023-04-24T11:45:14;11.52;;;2.13;;
63008;SDS011;49099;28.428;-16.488;2023-04-24T11:47:44;11.77;;;1.80;;
63008;SDS011;49099;28.428;-16.488;2023-04-24T11:50:12;12.45;;;1.90;;
63008;SDS011;49099;28.428;-16.488;2023-04-24T11:52:44;12.27;;;2.28;;
63008;SDS011;49099;28.428;-16.488;2023-04-24T11:57:44;10.20;;;2.10;;
63008;SDS011;49099;28.428;-16.488;2023-04-24T12:00:25;9.55;;;1.80;;
63008;SDS011;49099;28.428;-16.488;2023-04-24T12:03:08;12.75;;;1.90;;
63008;SDS011;49099;28.428;-16.488;2023-04-24T12:05:38;12.05;;;2.38;;
63008;SDS011;49099;28.428;-16.488;2023-04-24T12:08:06;13.63;;;2.17;;
63008;SDS011;49099;28.428;-16.488;2023-04-24T12:10:33;17.13;;;2.30;;
63008;SDS011;49099;28.428;-16.488;2023-04-24T12:13:01;8.65;;;1.75;;
63008;SDS011;49099;28.428;-16.488;2023-04-24T12:15:29;13.90;;;2.28;;
63008;SDS011;49099;28.428;-16.488;2023-04-24T12:17:56;12.27;;;2.35;;
63008;SDS011;49099;28.428;-16.488;2023-04-24T12:20:28;9.25;;;1.80;;
63008;SDS011;49099;28.428;-16.488;2023-04-24T12:23:02;11.55;;;2.40;;
63008;SDS011;49099;28.428;-16.488;2023-04-24T12:25:33;10.60;;;2.35;;
63008;SDS011;49099;28.428;-16.488;2023-04-24T12:30:32;12.73;;;2.40;;
63008;SDS011;49099;28.428;-16.488;2023-04-24T12:33:07;9.45;;;1.85;;
63008;SDS011;49099;28.428;-16.488;2023-04-24T12:35:34;15.52;;;2.17;;
63008;SDS011;49099;28.428;-16.488;2023-04-24T12:38:10;7.95;;;1.70;;
63008;SDS011;49099;28.428;-16.488;2023-04-24T12:40:41;11.32;;;2.03;;
63008;SDS011;49099;28.428;-16.488;2023-04-24T12:43:18;12.25;;;2.05;;
63008;SDS011;49099;28.428;-16.488;2023-04-24T12:45:49;11.32;;;2.00;;
63008;SDS011;49099;28.428;-16.488;2023-04-24T12:48:16;13.98;;;2.22;;
63008;SDS011;49099;28.428;-16.488;2023-04-24T12:50:48;9.85;;;2.58;;
63008;SDS011;49099;28.428;-16.488;2023-04-24T12:53:15;12.18;;;1.75;;
63008;SDS011;49099;28.428;-16.488;2023-04-24T12:55:43;12.52;;;2.05;;
63008;SDS011;49099;28.428;-16.488;2023-04-24T12:58:13;11.38;;;2.38;;
63008;SDS011;49099;28.428;-16.488;2023-04-24T13:00:40;16.50;;;2.60;;
63008;SDS011;49099;28.428;-16.488;2023-04-24T13:03:10;14.15;;;2.40;;
63008;SDS011;49099;28.428;-16.488;2023-04-24T13:05:38;7.53;;;1.85;;
63008;SDS011;49099;28.428;-16.488;2023-04-24T13:08:05;15.27;;;2.13;;
63008;SDS011;49099;28.428;-16.488;2023-04-24T13:10:33;12.15;;;2.05;;
63008;SDS011;49099;28.428;-16.488;2023-04-24T13:13:04;12.63;;;2.90;;
63008;SDS011;49099;28.428;-16.488;2023-04-24T13:15:31;10.43;;;1.95;;
63008;SDS011;49099;28.428;-16.488;2023-04-24T13:18:07;14.25;;;2.38;;
63008;SDS011;49099;28.428;-16.488;2023-04-24T13:20:39;16.63;;;2.33;;
63008;SDS011;49099;28.428;-16.488;2023-04-24T13:23:08;13.48;;;2.17;;
63008;SDS011;49099;28.428;-16.488;2023-04-24T13:25:35;15.45;;;2.60;;
63008;SDS011;49099;28.428;-16.488;2023-04-24T13:28:05;13.90;;;2.72;;
63008;SDS011;49099;28.428;-16.488;2023-04-24T13:30:33;10.32;;;2.22;;
63008;SDS011;49099;28.428;-16.488;2023-04-24T13:33:01;10.73;;;2.00;;
63008;SDS011;49099;28.428;-16.488;2023-04-24T13:38:33;10.43;;;2.30;;
63008;SDS011;49099;28.428;-16.488;2023-04-24T13:41:01;11.77;;;2.20;;
63008;SDS011;49099;28.428;-16.488;2023-04-24T13:43:29;10.55;;;2.00;;
63008;SDS011;49099;28.428;-16.488;2023-04-24T13:45:56;11.45;;;2.40;;
63008;SDS011;49099;28.428;-16.488;2023-04-24T13:48:25;9.25;;;2.42;;
63008;SDS011;49099;28.428;-16.488;2023-04-24T13:50:53;14.40;;;2.30;;
63008;SDS011;49099;28.428;-16.488;2023-04-24T13:53:20;13.02;;;2.50;;
63008;SDS011;49099;28.428;-16.488;2023-04-24T13:55:47;11.48;;;2.35;;
63008;SDS011;49099;28.428;-16.488;2023-04-24T13:58:15;11.82;;;2.25;;
63008;SDS011;49099;28.428;-16.488;2023-04-24T14:00:42;16.40;;;2.42;;
63008;SDS011;49099;28.428;-16.488;2023-04-24T14:03:10;15.57;;;2.50;;
63008;SDS011;49099;28.428;-16.488;2023-04-24T14:05:37;13.48;;;2.40;;
63008;SDS011;49099;28.428;-16.488;2023-04-24T14:08:04;17.67;;;2.55;;
63008;SDS011;49099;28.428;-16.488;2023-04-24T14:10:32;12.07;;;2.20;;
63008;SDS011;49099;28.428;-16.488;2023-04-24T14:12:59;12.63;;;2.13;;
63008;SDS011;49099;28.428;-16.488;2023-04-24T14:15:27;10.23;;;2.20;;
63008;SDS011;49099;28.428;-16.488;2023-04-24T14:17:54;13.60;;;2.35;;
63008;SDS011;49099;28.428;-16.488;2023-04-24T14:20:22;12.10;;;2.22;;
63008;SDS011;49099;28.428;-16.488;2023-04-24T14:22:49;12.68;;;1.88;;
63008;SDS011;49099;28.428;-16.488;2023-04-24T14:25:17;13.85;;;2.03;;
63008;SDS011;49099;28.428;-16.488;2023-04-24T14:27:44;8.95;;;1.77;;
63008;SDS011;49099;28.428;-16.488;2023-04-24T14:30:12;8.70;;;2.00;;
63008;SDS011;49099;28.428;-16.488;2023-04-24T14:32:40;13.82;;;2.40;;
63008;SDS011;49099;28.428;-16.488;2023-04-24T14:35:07;8.95;;;2.33;;
63008;SDS011;49099;28.428;-16.488;2023-04-24T14:37:34;12.32;;;2.70;;
63008;SDS011;49099;28.428;-16.488;2023-04-24T14:40:03;11.68;;;1.90;;
63008;SDS011;49099;28.428;-16.488;2023-04-24T14:42:36;16.95;;;2.47;;
63008;SDS011;49099;28.428;-16.488;2023-04-24T14:45:04;14.80;;;2.65;;